Etusivu
METAR-TAF:

METAR-TAF

Lentoasemat :

Jämsä, Suomi

Hallin lentoasema

Leveyspiiri: 61-51N, Pituuspiiri: 024-48E, korkeus merenpinnasta: 143 m

Tämänhetkinen sää

Tämä raportti tehtiin 37 minuuttia sitten, kello 17.20 UTC
Tuuli 2 kn pohjoisen/luoteesta
Lämpötila -11°C
Kosteus 92%
Ilmanpaine 1026 hPa
Näkyvyys: 1900 m
Hajonneita pilviä 2100 ft:n korkeudessa
heikkoa lumisadetta

METAR: EFHA 191720Z AUTO 33002KT 1900 -SN BKN021 M11/M12 Q1026

Aika: 19:57 (17:57 UTC)

Sääennuste

Tämä raportti tehtiin 6 tuntia ja 26 minuuttia sitten, kello 11.31 UTC
Ennuste voimassa 19. päivästä klo 12 UTC - 19. päivään klo 14 UTC
Tuuli 4 kn pohjoisesta
Näkyvyys 10 km tai enemmän
ei pilviä alle 1500 m:ssä eikä cumulonimbus-pilviä

TAF: EFHA 191131Z 1912/1914 01004KT CAVOK

Säähavainnot ja -ennusteet yli 4000 lentoasemalta (METAR- ja TAF-raportit).

Käytössä olevat sääasemat on merkitty karttaan keltaisilla ja punaisilla pisteillä.

Aseta hiiri pisteen päälle nähdäksesi sääaseman nimen.

Klikkaa sitten nähdäksesi säähavainnot ja -ennusteet.

Kartan vaihtaminen: klikkaa mustalla rastilla varustettuja vihreitä pisteitä, niin voit zoomata sisään; viivalla varustettua vihreää pistettä, niin voit zoomata ulos tai vihreitä nuolia, niin pääset viereisille kartoille.


METAR-TAF: